createdAt,value
2023-05-06T00:00:07.042Z,98088.34
2023-05-06T00:02:40.028Z,98081.00
2023-05-06T00:05:08.389Z,98083.31
2023-05-06T00:07:36.252Z,98080.97
2023-05-06T00:10:04.529Z,98087.59
2023-05-06T00:12:32.150Z,98071.66
2023-05-06T00:14:59.869Z,98073.59
2023-05-06T00:17:27.551Z,98072.41
2023-05-06T00:19:56.510Z,98071.66
2023-05-06T00:22:23.932Z,98054.94
2023-05-06T00:24:51.455Z,98066.19
2023-05-06T00:27:19.259Z,98072.41
2023-05-06T00:29:46.854Z,98063.88
2023-05-06T00:32:14.663Z,98068.53
2023-05-06T00:34:42.347Z,98061.91
2023-05-06T00:37:10.056Z,98068.56
2023-05-06T00:39:37.828Z,98075.91
2023-05-06T00:42:05.461Z,98065.06
2023-05-06T00:44:33.044Z,98078.28
2023-05-06T00:47:01.881Z,98079.41
2023-05-06T00:49:31.030Z,98085.66
2023-05-06T00:52:00.584Z,98081.38
2023-05-06T00:54:30.109Z,98065.84
2023-05-06T00:56:57.876Z,98078.28
2023-05-06T00:59:25.530Z,98068.53
2023-05-06T01:01:54.252Z,98068.16
2023-05-06T01:04:24.321Z,98077.50
2023-05-06T01:07:03.916Z,98076.34
2023-05-06T01:09:43.281Z,98067.00
2023-05-06T01:12:37.944Z,98061.94
2023-05-06T01:15:12.216Z,98081.38
2023-05-06T01:17:46.723Z,98084.88
2023-05-06T01:20:15.523Z,98077.88
2023-05-06T01:22:43.534Z,98081.75
2023-05-06T01:25:21.796Z,98077.06
2023-05-06T01:27:50.069Z,98076.69
2023-05-06T01:30:19.913Z,98076.63
2023-05-06T01:33:01.188Z,98077.38
2023-05-06T01:35:58.898Z,98077.31
2023-05-06T01:38:41.100Z,98084.28
2023-05-06T01:41:11.734Z,98081.63
2023-05-06T01:43:43.462Z,98091.31
2023-05-06T01:46:22.413Z,98085.78
2023-05-06T01:48:56.943Z,98085.41
2023-05-06T01:51:25.412Z,98089.75
2023-05-06T01:53:52.986Z,98085.09
2023-05-06T01:56:20.606Z,98079.19
2023-05-06T01:58:48.213Z,98081.13
2023-05-06T02:01:16.108Z,98092.00
2023-05-06T02:03:43.766Z,98087.69
2023-05-06T02:06:11.592Z,98096.19
2023-05-06T02:08:41.089Z,98102.00
2023-05-06T02:11:11.513Z,98093.81
2023-05-06T02:13:40.330Z,98097.34
2023-05-06T02:16:09.748Z,98097.34
2023-05-06T02:18:38.458Z,98097.34
2023-05-06T02:21:06.194Z,98075.94
2023-05-06T02:23:33.677Z,98101.56
2023-05-06T02:26:01.413Z,98094.22
2023-05-06T02:28:29.364Z,98098.81
2023-05-06T02:30:58.391Z,98112.41
2023-05-06T02:33:26.398Z,98101.16
2023-05-06T02:35:55.505Z,98096.72
2023-05-06T02:38:23.420Z,98096.72
2023-05-06T02:40:50.933Z,98093.44
2023-05-06T02:43:18.443Z,98097.66
2023-05-06T02:45:45.998Z,98099.09
2023-05-06T02:48:13.516Z,98091.28
2023-05-06T02:50:41.466Z,98093.16
2023-05-06T02:53:10.681Z,98095.47
2023-05-06T02:55:38.359Z,98093.72
2023-05-06T02:58:06.362Z,98098.72
2023-05-06T03:00:34.131Z,98092.72
2023-05-06T03:03:01.894Z,98093.56
2023-05-06T03:05:29.588Z,98094.72
2023-05-06T03:07:57.358Z,98094.53
2023-05-06T03:10:25.016Z,98100.66
2023-05-06T03:12:52.753Z,98084.72
2023-05-06T03:15:20.403Z,98099.91
2023-05-06T03:17:48.256Z,98098.16
2023-05-06T03:20:16.456Z,98099.94
2023-05-06T03:22:50.585Z,98095.53
2023-05-06T03:25:19.483Z,98088.19
2023-05-06T03:27:48.564Z,98091.97
2023-05-06T03:30:22.060Z,98093.66
2023-05-06T03:32:52.582Z,98088.50
2023-05-06T03:35:27.421Z,98089.06
2023-05-06T03:37:58.315Z,98090.34
2023-05-06T03:40:30.220Z,98084.41
2023-05-06T03:42:59.000Z,98080.94
2023-05-06T03:45:27.887Z,98082.84
2023-05-06T03:47:58.563Z,98084.75
2023-05-06T03:50:27.115Z,98082.56
2023-05-06T03:52:55.567Z,98082.63
2023-05-06T03:55:25.785Z,98079.81
2023-05-06T03:57:53.547Z,98084.34
2023-05-06T04:00:22.347Z,98080.91
2023-05-06T04:02:53.842Z,98077.97
2023-05-06T04:05:27.930Z,98084.00
2023-05-06T04:07:55.746Z,98082.16
2023-05-06T04:10:24.013Z,98070.41
2023-05-06T04:12:53.936Z,98063.31
2023-05-06T04:15:26.615Z,98060.56
2023-05-06T04:17:54.361Z,98066.13
2023-05-06T04:20:22.294Z,98060.16
2023-05-06T04:22:49.923Z,98056.78
2023-05-06T04:25:19.900Z,98048.09
2023-05-06T04:27:49.119Z,98043.69
2023-05-06T04:30:18.631Z,98044.81
2023-05-06T04:32:47.010Z,98051.28
2023-05-06T04:35:15.410Z,98043.72
2023-05-06T04:37:44.054Z,98048.63
2023-05-06T04:40:20.983Z,98047.16
2023-05-06T04:42:52.767Z,98044.75
2023-05-06T04:45:26.347Z,98040.22
2023-05-06T04:47:55.390Z,98047.38
2023-05-06T04:50:23.128Z,98040.47
2023-05-06T04:52:50.794Z,98032.81
2023-05-06T04:55:20.613Z,98038.88
2023-05-06T04:57:52.435Z,98031.97
2023-05-06T05:00:20.393Z,98029.03
2023-05-06T05:02:48.508Z,98032.25
2023-05-06T05:05:17.933Z,98026.16
2023-05-06T05:07:48.981Z,98024.78
2023-05-06T05:10:17.300Z,98024.66
2023-05-06T05:12:45.242Z,98022.16
2023-05-06T05:15:13.608Z,98023.28
2023-05-06T05:17:42.280Z,98025.47
2023-05-06T05:20:10.510Z,98035.75
2023-05-06T05:22:38.561Z,98026.31
2023-05-06T05:25:08.227Z,98029.59
2023-05-06T05:27:36.867Z,98017.03
2023-05-06T05:30:04.954Z,98011.31
2023-05-06T05:32:37.429Z,98006.34
2023-05-06T05:35:05.642Z,98006.34
2023-05-06T05:37:34.348Z,98013.22
2023-05-06T05:40:02.483Z,98008.06
2023-05-06T05:42:34.092Z,98007.47
2023-05-06T05:45:08.079Z,97998.22
2023-05-06T05:47:36.340Z,97992.00
2023-05-06T05:50:04.663Z,97995.50
2023-05-06T05:52:32.434Z,97991.84
2023-05-06T05:55:00.830Z,97995.41
2023-05-06T05:57:29.272Z,97992.16
2023-05-06T05:59:56.902Z,97992.38
2023-05-06T06:02:25.431Z,97990.94
2023-05-06T06:04:53.278Z,97986.19
2023-05-06T06:07:21.064Z,97978.88
2023-05-06T06:09:49.262Z,97975.97
2023-05-06T06:12:18.517Z,97972.31
2023-05-06T06:14:48.405Z,97962.19
2023-05-06T06:17:20.059Z,97966.28
2023-05-06T06:19:50.936Z,97959.19
2023-05-06T06:22:18.542Z,97958.19
2023-05-06T06:24:46.752Z,97961.19
2023-05-06T06:27:14.277Z,97939.03
2023-05-06T06:29:41.946Z,97933.19
2023-05-06T06:32:09.737Z,97941.56
2023-05-06T06:34:37.320Z,97946.13
2023-05-06T06:37:06.233Z,97963.28
2023-05-06T06:39:35.379Z,97954.06
2023-05-06T06:42:07.241Z,97937.75
2023-05-06T06:44:40.174Z,97930.88
2023-05-06T06:47:07.864Z,97929.19
2023-05-06T06:49:35.482Z,97927.00
2023-05-06T06:52:03.276Z,97913.78
2023-05-06T06:54:30.796Z,97912.88
2023-05-06T06:56:58.337Z,97924.63
2023-05-06T06:59:25.901Z,97900.91
2023-05-06T07:01:53.573Z,97908.88
2023-05-06T07:04:21.403Z,97910.00
2023-05-06T07:06:48.988Z,97895.28
2023-05-06T07:09:16.726Z,97891.34
2023-05-06T07:11:44.439Z,97890.38
2023-05-06T07:14:14.089Z,97891.34
2023-05-06T07:16:42.533Z,97874.91
2023-05-06T07:19:11.529Z,97877.78
2023-05-06T07:21:39.035Z,97876.13
2023-05-06T07:24:06.981Z,97877.06
2023-05-06T07:26:38.073Z,97885.00
2023-05-06T07:29:05.708Z,97879.41
2023-05-06T07:31:33.887Z,97880.69
2023-05-06T07:34:01.480Z,97868.59
2023-05-06T07:36:29.433Z,97844.84
2023-05-06T07:38:57.130Z,97876.16
2023-05-06T07:41:24.696Z,97859.06
2023-05-06T07:43:52.499Z,97906.72
2023-05-06T07:46:20.173Z,97869.44
2023-05-06T07:48:47.763Z,97860.84
2023-05-06T07:51:17.041Z,97859.06
2023-05-06T07:53:44.531Z,97839.28
2023-05-06T07:56:12.225Z,97836.91
2023-05-06T07:58:39.834Z,97856.16
2023-05-06T08:01:07.417Z,97847.88
2023-05-06T08:03:36.092Z,97853.25
2023-05-06T08:06:03.980Z,97835.31
2023-05-06T08:08:31.685Z,97832.94
2023-05-06T08:11:04.170Z,97834.44
2023-05-06T08:16:40.144Z,97840.72
2023-05-06T08:19:07.784Z,97838.41
2023-05-06T08:21:35.634Z,97836.25
2023-05-06T08:24:03.508Z,97818.66
2023-05-06T08:26:31.124Z,97831.09
2023-05-06T08:28:59.823Z,97825.34
2023-05-06T08:31:27.396Z,97821.78
2023-05-06T08:33:55.230Z,97852.16
2023-05-06T08:36:23.148Z,97825.00
2023-05-06T08:38:51.322Z,97837.22
2023-05-06T08:41:21.696Z,97824.19
2023-05-06T08:43:50.672Z,97824.59
2023-05-06T08:46:18.646Z,97811.75
2023-05-06T08:48:46.469Z,97814.06
2023-05-06T08:51:15.666Z,97813.63
2023-05-06T08:53:48.794Z,97810.50
2023-05-06T08:56:17.683Z,97808.22
2023-05-06T08:58:48.947Z,97805.56
2023-05-06T09:01:16.797Z,97799.25
2023-05-06T09:03:44.468Z,97787.53
2023-05-06T09:06:12.169Z,97783.53
2023-05-06T09:08:39.704Z,97795.88
2023-05-06T09:11:26.729Z,97800.97
2023-05-06T09:14:18.083Z,97782.81
2023-05-06T09:16:48.289Z,97793.91
2023-05-06T09:19:17.365Z,97790.09
2023-05-06T09:21:48.070Z,97769.63
2023-05-06T09:24:17.084Z,97788.56
2023-05-06T09:26:46.383Z,97777.44
2023-05-06T09:29:14.221Z,97759.69
2023-05-06T09:31:46.596Z,97772.84
2023-05-06T09:34:15.736Z,97767.56
2023-05-06T09:36:43.278Z,97754.34
2023-05-06T09:39:11.126Z,97773.53
2023-05-06T09:41:38.780Z,97766.16
2023-05-06T09:44:06.529Z,97756.44
2023-05-06T09:46:34.292Z,97759.06
2023-05-06T09:49:02.527Z,97745.25
2023-05-06T09:51:31.306Z,97749.47
2023-05-06T09:54:01.209Z,97740.50
2023-05-06T09:56:31.085Z,97740.03
2023-05-06T09:59:01.586Z,97734.53
2023-05-06T10:01:36.821Z,97752.94
2023-05-06T10:04:08.829Z,97746.84
2023-05-06T10:06:40.011Z,97756.28
2023-05-06T10:09:09.580Z,97748.41
2023-05-06T10:11:37.386Z,97747.28
2023-05-06T10:14:05.660Z,97739.66
2023-05-06T10:16:36.574Z,97732.84
2023-05-06T10:19:06.932Z,97731.59
2023-05-06T10:21:39.394Z,97727.63
2023-05-06T10:24:11.782Z,97733.97
2023-05-06T10:26:41.929Z,97722.44
2023-05-06T10:29:11.530Z,97718.06
2023-05-06T10:31:46.607Z,97716.94
2023-05-06T10:34:16.704Z,97696.59
2023-05-06T10:36:46.146Z,97734.34
2023-05-06T10:39:14.506Z,97714.00
2023-05-06T10:41:43.198Z,97698.56
2023-05-06T10:44:10.945Z,97707.44
2023-05-06T10:46:59.899Z,97701.47
2023-05-06T10:49:28.055Z,97698.66
2023-05-06T10:52:23.391Z,97709.47
2023-05-06T10:54:52.104Z,97701.09
2023-05-06T10:57:25.893Z,97707.28
2023-05-06T10:59:55.858Z,97700.28
2023-05-06T11:02:24.364Z,97692.19
2023-05-06T11:04:53.409Z,97693.53
2023-05-06T11:07:25.079Z,97708.41
2023-05-06T11:10:01.350Z,97683.78
2023-05-06T11:13:34.630Z,97693.06
2023-05-06T11:16:02.930Z,97687.13
2023-05-06T11:18:37.161Z,97665.91
2023-05-06T11:21:08.440Z,97696.50
2023-05-06T11:23:53.737Z,97676.31
2023-05-06T11:26:21.639Z,97666.50
2023-05-06T11:28:51.599Z,97671.19
2023-05-06T11:31:21.278Z,97671.84
2023-05-06T11:33:51.471Z,97672.69
2023-05-06T11:36:20.947Z,97659.13
2023-05-06T11:38:53.137Z,97670.41
2023-05-06T11:41:23.461Z,97658.28
2023-05-06T11:43:52.427Z,97660.38
2023-05-06T11:46:21.879Z,97645.22
2023-05-06T11:48:50.763Z,97649.31
2023-05-06T11:51:25.045Z,97643.38
2023-05-06T11:53:54.421Z,97644.53
2023-05-06T11:56:21.996Z,97633.63
2023-05-06T11:58:49.608Z,97619.97
2023-05-06T12:01:17.242Z,97631.91
2023-05-06T12:03:44.893Z,97623.97
2023-05-06T12:06:13.429Z,97619.50
2023-05-06T12:08:41.126Z,97617.69
2023-05-06T12:11:09.608Z,97623.41
2023-05-06T12:13:38.054Z,97612.06
2023-05-06T12:16:08.019Z,97607.84
2023-05-06T12:18:36.503Z,97612.81
2023-05-06T12:21:04.444Z,97609.06
2023-05-06T12:23:32.381Z,97607.00
2023-05-06T12:26:05.054Z,97615.03
2023-05-06T12:28:35.366Z,97606.53
2023-05-06T12:31:26.431Z,97599.66
2023-05-06T12:33:56.677Z,97590.47
2023-05-06T12:36:24.851Z,97587.34
2023-05-06T12:38:54.272Z,97587.69
2023-05-06T12:41:25.205Z,97587.22
2023-05-06T12:43:53.240Z,97589.25
2023-05-06T12:46:21.205Z,97580.56
2023-05-06T12:49:02.999Z,97583.31
2023-05-06T12:51:31.246Z,97573.97
2023-05-06T12:53:58.973Z,97579.22
2023-05-06T12:56:26.580Z,97573.41
2023-05-06T12:59:01.733Z,97577.69
2023-05-06T13:01:29.597Z,97563.66
2023-05-06T13:03:58.590Z,97561.94
2023-05-06T13:06:26.450Z,97557.19
2023-05-06T13:08:53.989Z,97558.00
2023-05-06T13:11:22.519Z,97563.63
2023-05-06T13:13:50.155Z,97563.03
2023-05-06T13:16:17.837Z,97562.41
2023-05-06T13:18:45.559Z,97565.16
2023-05-06T13:21:14.287Z,97563.34
2023-05-06T13:23:47.146Z,97550.38
2023-05-06T13:26:15.671Z,97576.72
2023-05-06T13:28:43.231Z,97558.84
2023-05-06T13:31:11.505Z,97578.72
2023-05-06T13:33:39.324Z,97553.75
2023-05-06T13:36:07.184Z,97576.91
2023-05-06T13:38:34.754Z,97563.56
2023-05-06T13:41:02.335Z,97566.63
2023-05-06T13:43:29.895Z,97560.97
2023-05-06T13:45:57.402Z,97557.59
2023-05-06T13:48:25.058Z,97551.78
2023-05-06T13:50:52.914Z,97535.38
2023-05-06T13:53:20.393Z,97570.47
2023-05-06T13:55:47.999Z,97551.75
2023-05-06T13:58:17.509Z,97537.31
2023-05-06T14:00:45.272Z,97564.09
2023-05-06T14:03:12.966Z,97532.00
2023-05-06T14:05:40.669Z,97538.41
2023-05-06T14:08:08.701Z,97545.88
2023-05-06T14:10:36.344Z,97542.28
2023-05-06T14:13:06.783Z,97543.50
2023-05-06T14:15:34.886Z,97541.94
2023-05-06T14:18:04.164Z,97544.19
2023-05-06T14:20:32.071Z,97561.22
2023-05-06T14:22:59.514Z,97537.31
2023-05-06T14:25:28.292Z,97539.44
2023-05-06T14:27:55.945Z,97572.59
2023-05-06T14:30:25.932Z,97544.34
2023-05-06T14:32:53.800Z,97537.78
2023-05-06T14:35:21.498Z,97544.13
2023-05-06T14:37:49.190Z,97546.25
2023-05-06T14:40:17.437Z,97553.75
2023-05-06T14:42:46.207Z,97537.44
2023-05-06T14:45:14.138Z,97551.75
2023-05-06T14:47:42.719Z,97537.97
2023-05-06T14:50:11.608Z,97548.44
2023-05-06T14:52:40.583Z,97541.09
2023-05-06T14:55:10.921Z,97542.56
2023-05-06T14:57:38.962Z,97541.28
2023-05-06T15:00:10.274Z,97548.22
2023-05-06T15:02:38.642Z,97541.72
2023-05-06T15:05:09.817Z,97543.59
2023-05-06T15:07:37.876Z,97530.25
2023-05-06T15:10:06.012Z,97527.94
2023-05-06T15:12:36.627Z,97541.22
2023-05-06T15:15:05.546Z,97529.06
2023-05-06T15:17:34.458Z,97534.69
2023-05-06T15:20:02.154Z,97511.81
2023-05-06T15:22:32.660Z,97523.03
2023-05-06T15:25:01.105Z,97527.22
2023-05-06T15:27:28.711Z,97528.34
2023-05-06T15:29:56.541Z,97525.00
2023-05-06T15:32:24.099Z,97514.72
2023-05-06T15:34:51.883Z,97526.78
2023-05-06T15:37:19.914Z,97526.03
2023-05-06T15:39:48.227Z,97519.94
2023-05-06T15:42:17.356Z,97521.84
2023-05-06T15:44:45.018Z,97521.22
2023-05-06T15:47:12.684Z,97512.97
2023-05-06T15:52:10.758Z,97508.97
2023-05-06T15:54:38.203Z,97508.19
2023-05-06T15:57:07.182Z,97500.97
2023-05-06T15:59:35.257Z,97496.06
2023-05-06T16:04:34.829Z,97501.13
2023-05-06T16:07:02.825Z,97497.84
2023-05-06T16:09:30.443Z,97490.03
2023-05-06T16:11:58.129Z,97487.94
2023-05-06T16:14:25.751Z,97484.25
2023-05-06T16:16:53.304Z,97481.16
2023-05-06T16:19:20.969Z,97477.00
2023-05-06T16:21:48.656Z,97476.47
2023-05-06T16:24:16.528Z,97469.31
2023-05-06T16:26:44.061Z,97474.50
2023-05-06T16:29:11.693Z,97480.78
2023-05-06T16:31:39.444Z,97476.63
2023-05-06T16:34:07.087Z,97484.53
2023-05-06T16:36:34.584Z,97464.66
2023-05-06T16:39:02.095Z,97469.41
2023-05-06T16:41:30.006Z,97470.28
2023-05-06T16:43:57.967Z,97482.34
2023-05-06T16:46:26.711Z,97475.34
2023-05-06T16:48:54.343Z,97467.75
2023-05-06T16:51:22.007Z,97460.97
2023-05-06T16:53:49.617Z,97479.75
2023-05-06T16:56:17.276Z,97476.00
2023-05-06T16:58:44.955Z,97466.03
2023-05-06T17:01:14.939Z,97470.31
2023-05-06T17:03:43.254Z,97463.63
2023-05-06T17:06:11.745Z,97461.75
2023-05-06T17:08:39.329Z,97479.97
2023-05-06T17:11:07.694Z,97501.06
2023-05-06T17:13:35.473Z,97469.94
2023-05-06T17:16:03.032Z,97484.78
2023-05-06T17:18:30.634Z,97493.53
2023-05-06T17:20:58.265Z,97496.16
2023-05-06T17:23:26.012Z,97482.44
2023-05-06T17:25:56.873Z,97478.00
2023-05-06T17:28:24.603Z,97478.97
2023-05-06T17:30:52.161Z,97481.50
2023-05-06T17:33:20.564Z,97480.25
2023-05-06T17:35:48.464Z,97478.97
2023-05-06T17:38:17.160Z,97479.28
2023-05-06T17:40:44.650Z,97479.59
2023-05-06T17:43:12.271Z,97488.28
2023-05-06T17:45:41.782Z,97491.28
2023-05-06T17:48:09.441Z,97479.63
2023-05-06T17:50:37.081Z,97496.91
2023-05-06T17:53:04.554Z,97494.28
2023-05-06T17:55:32.142Z,97502.19
2023-05-06T17:57:59.945Z,97499.13
2023-05-06T18:00:27.565Z,97490.38
2023-05-06T18:02:56.048Z,97497.84
2023-05-06T18:05:25.941Z,97500.06
2023-05-06T18:07:53.548Z,97497.44
2023-05-06T18:10:21.103Z,97486.94
2023-05-06T18:12:48.779Z,97502.97
2023-05-06T18:15:16.434Z,97489.47
2023-05-06T18:17:44.130Z,97498.25
2023-05-06T18:20:12.375Z,97504.00
2023-05-06T18:22:40.058Z,97495.53
2023-05-06T18:25:08.106Z,97499.63
2023-05-06T18:27:36.366Z,97488.00
2023-05-06T18:30:05.197Z,97512.34
2023-05-06T18:32:35.301Z,97504.25
2023-05-06T18:35:03.065Z,97498.06
2023-05-06T18:37:34.435Z,97498.50
2023-05-06T18:40:02.086Z,97499.16
2023-05-06T18:42:33.904Z,97484.91
2023-05-06T18:45:04.900Z,97495.75
2023-05-06T18:47:33.569Z,97495.09
2023-05-06T18:50:01.114Z,97490.03
2023-05-06T18:52:30.382Z,97490.19
2023-05-06T18:54:58.059Z,97496.84
2023-05-06T18:57:27.238Z,97483.03
2023-05-06T18:59:54.744Z,97478.75
2023-05-06T19:02:22.910Z,97497.53
2023-05-06T19:04:50.696Z,97489.81
2023-05-06T19:07:18.611Z,97493.59
2023-05-06T19:09:46.550Z,97496.47
2023-05-06T19:12:15.459Z,97486.81
2023-05-06T19:14:43.159Z,97495.59
2023-05-06T19:17:11.661Z,97485.81
2023-05-06T19:19:39.484Z,97476.38
2023-05-06T19:22:07.119Z,97480.25
2023-05-06T19:24:34.646Z,97484.59
2023-05-06T19:27:02.943Z,97483.75
2023-05-06T19:29:30.467Z,97492.38
2023-05-06T19:31:57.989Z,97491.31
2023-05-06T19:34:25.824Z,97485.94
2023-05-06T19:36:53.417Z,97486.44
2023-05-06T19:39:21.929Z,97486.19
2023-05-06T19:41:50.645Z,97490.31
2023-05-06T19:44:18.162Z,97481.00
2023-05-06T19:46:45.755Z,97482.38
2023-05-06T19:49:13.426Z,97481.34
2023-05-06T19:51:41.241Z,97480.25
2023-05-06T19:54:08.772Z,97480.53
2023-05-06T19:56:36.673Z,97480.31
2023-05-06T19:59:04.195Z,97472.69
2023-05-06T20:01:31.774Z,97470.94
2023-05-06T20:03:59.429Z,97465.75
2023-05-06T20:06:27.851Z,97473.56
2023-05-06T20:08:56.441Z,97467.72
2023-05-06T20:11:24.687Z,97463.31
2023-05-06T20:13:52.444Z,97450.22
2023-05-06T20:16:20.068Z,97458.56
2023-05-06T20:18:48.097Z,97451.44
2023-05-06T20:21:17.035Z,97454.31
2023-05-06T20:23:44.696Z,97449.97
2023-05-06T20:26:12.430Z,97442.09
2023-05-06T20:28:40.081Z,97433.38
2023-05-06T20:31:07.847Z,97446.63
2023-05-06T20:33:35.428Z,97438.94
2023-05-06T20:36:04.337Z,97433.47
2023-05-06T20:38:32.076Z,97442.34
2023-05-06T20:40:59.680Z,97432.28
2023-05-06T20:43:27.247Z,97436.97
2023-05-06T20:45:54.771Z,97438.06
2023-05-06T20:48:22.564Z,97431.56
2023-05-06T20:50:50.507Z,97437.09
2023-05-06T20:53:18.136Z,97432.88
2023-05-06T20:55:45.849Z,97432.19
2023-05-06T20:58:13.439Z,97426.72
2023-05-06T21:00:41.052Z,97426.25
2023-05-06T21:03:08.788Z,97421.50
2023-05-06T21:05:36.436Z,97418.19
2023-05-06T21:08:04.211Z,97416.16
2023-05-06T21:10:31.846Z,97410.84
2023-05-06T21:12:59.763Z,97410.19
2023-05-06T21:15:27.443Z,97413.41
2023-05-06T21:17:55.051Z,97398.88
2023-05-06T21:20:22.832Z,97404.34
2023-05-06T21:22:50.369Z,97412.16
2023-05-06T21:25:18.137Z,97399.06
2023-05-06T21:27:45.655Z,97407.97
2023-05-06T21:30:13.706Z,97405.38
2023-05-06T21:32:41.354Z,97405.09
2023-05-06T21:35:09.330Z,97400.75
2023-05-06T21:37:37.111Z,97395.31
2023-05-06T21:40:05.169Z,97400.19
2023-05-06T21:42:34.886Z,97394.03
2023-05-06T21:45:02.638Z,97397.06
2023-05-06T21:47:33.961Z,97388.16
2023-05-06T21:50:01.633Z,97395.97
2023-05-06T21:52:33.348Z,97386.81
2023-05-06T21:55:01.408Z,97394.63
2023-05-06T21:57:33.798Z,97388.53
2023-05-06T22:00:01.880Z,97390.22
2023-05-06T22:02:36.369Z,97396.84
2023-05-06T22:05:04.035Z,97392.25
2023-05-06T22:07:31.593Z,97391.16
2023-05-06T22:09:59.381Z,97362.63
2023-05-06T22:12:27.653Z,97388.22
2023-05-06T22:14:55.397Z,97387.47
2023-05-06T22:17:22.976Z,97378.09
2023-05-06T22:19:50.662Z,97381.41
2023-05-06T22:22:18.623Z,97384.72
2023-05-06T22:24:48.421Z,97386.84
2023-05-06T22:27:16.136Z,97384.88
2023-05-06T22:29:43.667Z,97393.00
2023-05-06T22:32:11.271Z,97383.41
2023-05-06T22:34:38.844Z,97376.00
2023-05-06T22:37:10.114Z,97377.84
2023-05-06T22:39:37.719Z,97368.00
2023-05-06T22:42:05.249Z,97364.97
2023-05-06T22:44:33.147Z,97354.09
2023-05-06T22:47:00.933Z,97370.50
2023-05-06T22:49:29.013Z,97363.53
2023-05-06T22:51:57.311Z,97365.53
2023-05-06T22:54:24.912Z,97364.22
2023-05-06T22:56:52.551Z,97356.31
2023-05-06T22:59:20.162Z,97357.50
2023-05-06T23:01:47.783Z,97357.88
2023-05-06T23:04:15.608Z,97351.28
2023-05-06T23:06:44.800Z,97345.88
2023-05-06T23:09:13.845Z,97346.66
2023-05-06T23:11:41.657Z,97347.44
2023-05-06T23:14:09.273Z,97341.72
2023-05-06T23:16:36.969Z,97347.09
2023-05-06T23:19:04.590Z,97344.72
2023-05-06T23:21:32.443Z,97344.97
2023-05-06T23:24:00.099Z,97351.09
2023-05-06T23:26:28.311Z,97343.28
2023-05-06T23:28:56.106Z,97347.91
2023-05-06T23:31:23.733Z,97351.28
2023-05-06T23:33:51.321Z,97342.94
2023-05-06T23:36:19.125Z,97342.50
2023-05-06T23:38:46.743Z,97347.69
2023-05-06T23:41:14.209Z,97355.16
2023-05-06T23:43:41.833Z,97353.16
2023-05-06T23:46:09.585Z,97359.94
2023-05-06T23:48:38.271Z,97362.75
2023-05-06T23:51:06.075Z,97360.31
2023-05-06T23:53:33.586Z,97352.09
2023-05-06T23:56:01.162Z,97351.69
2023-05-06T23:58:28.788Z,97357.34
